Time;durP1;ratioP1;P1;durP2;ratioP2;P2;SDS_P1;SDS_P2;PMS_P1;PMS_P2;Temp;Humidity;BMP_temperature;BMP_pressure;BME280_temperature;BME280_humidity;BME280_pressure;Samples;Min_cycle;Max_cycle;Signal;HPM_P1;HPM_P2
2022/05/24 00:01:17;;;;;;;3.00;1.60;;;;;;;16.39;100.00;99086.61;106956;1273;73668;-87
2022/05/24 00:03:45;;;;;;;2.30;1.00;;;;;;;16.37;100.00;99088.14;106618;1273;72345;-90
2022/05/24 00:06:32;;;;;;;2.90;1.60;;;;;;;16.37;100.00;99089.38;106643;1274;75398;-87
2022/05/24 00:09:15;;;;;;;4.80;1.20;;;;;;;16.33;100.00;99087.23;106657;1273;62778;-89
2022/05/24 00:11:54;;;;;;;3.40;1.60;;;;;;;16.25;100.00;99094.13;106779;1274;61244;-88
2022/05/24 00:17:41;;;;;;;;;;;;;;;;;;;;;
2022/05/24 00:21:01;;;;;;;3.80;1.40;;;;;;;16.10;100.00;99111.02;106824;1274;74458;-87
2022/05/24 00:23:46;;;;;;;5.20;2.40;;;;;;;16.06;100.00;99108.24;106859;1274;62766;-89
2022/05/24 00:29:33;;;;;;;3.00;1.90;;;;;;;16.00;100.00;99113.64;106169;1273;74390;-84
2022/05/24 00:32:00;;;;;;;7.20;2.50;;;;;;;15.98;100.00;99132.10;106006;1274;71463;-83
2022/05/24 00:34:29;;;;;;;2.40;1.60;;;;;;;15.89;100.00;99162.37;106129;1274;73909;-84
2022/05/24 00:37:05;;;;;;;2.50;1.70;;;;;;;15.66;100.00;99182.68;105785;1276;64286;-82
2022/05/24 00:39:33;;;;;;;3.60;1.20;;;;;;;15.41;100.00;99205.88;106004;1274;60606;-82
2022/05/24 00:42:25;;;;;;;2.90;1.90;;;;;;;15.22;100.00;99200.87;105603;1276;73940;-83
2022/05/24 00:45:08;;;;;;;4.60;2.10;;;;;;;15.05;100.00;99205.48;106069;1274;71849;-83
2022/05/24 00:47:50;;;;;;;5.60;4.10;;;;;;;14.93;100.00;99213.03;106129;1276;73964;-82
2022/05/24 00:50:23;;;;;;;5.80;4.40;;;;;;;14.82;100.00;99219.98;106235;1274;62641;-82
2022/05/24 00:52:55;;;;;;;11.30;5.30;;;;;;;14.75;100.00;99222.56;106187;1274;61172;-83
2022/05/24 00:55:26;;;;;;;5.40;4.80;;;;;;;14.68;100.00;99233.87;106348;1274;74879;-83
2022/05/24 00:58:34;;;;;;;8.10;5.70;;;;;;;14.64;100.00;99234.22;106069;1274;72197;-83
2022/05/24 01:01:13;;;;;;;7.90;6.30;;;;;;;14.58;100.00;99266.92;106179;1273;74320;-83
2022/05/24 01:03:45;;;;;;;7.70;6.00;;;;;;;14.50;100.00;99273.29;105917;1276;63539;-83
2022/05/24 01:06:24;;;;;;;10.40;7.40;;;;;;;14.42;100.00;99272.80;105955;1273;61384;-81
2022/05/24 01:09:07;;;;;;;7.20;5.70;;;;;;;14.35;100.00;99260.08;105822;1273;76209;-82
2022/05/24 01:11:46;;;;;;;9.80;7.00;;;;;;;14.28;100.00;99265.63;105892;1273;71988;-82
2022/05/24 01:14:15;;;;;;;8.80;5.90;;;;;;;14.22;100.00;99269.19;106344;1273;73014;-82
2022/05/24 01:16:43;;;;;;;8.80;6.60;;;;;;;14.17;100.00;99275.59;106497;1273;62004;-81
2022/05/24 01:19:20;;;;;;;12.10;8.00;;;;;;;14.13;100.00;99282.44;106133;1273;61221;-82
2022/05/24 01:21:55;;;;;;;11.10;7.60;;;;;;;14.09;100.00;99296.00;106189;1273;74973;-82
2022/05/24 01:24:34;;;;;;;8.70;5.40;;;;;;;14.06;100.00;99306.91;106142;1274;72900;-82
2022/05/24 01:27:04;;;;;;;9.90;6.00;;;;;;;14.05;100.00;99309.61;106125;1273;74206;-81
2022/05/24 01:29:38;;;;;;;9.80;6.40;;;;;;;14.04;100.00;99314.06;105989;1273;63102;-82
2022/05/24 01:37:53;;;;;;;12.00;7.30;;;;;;;13.97;100.00;99315.98;106254;1263;66555;-83
2022/05/24 01:40:20;;;;;;;8.50;6.00;;;;;;;13.94;100.00;99316.44;106657;1274;74110;-82
2022/05/24 01:42:47;;;;;;;8.40;6.20;;;;;;;13.91;100.00;99319.89;107498;1274;62185;-84
2022/05/24 01:45:30;;;;;;;7.20;5.20;;;;;;;13.90;100.00;99320.60;107548;1274;61615;-82
2022/05/24 01:48:07;;;;;;;10.00;6.60;;;;;;;13.89;100.00;99319.68;106231;1274;74728;-81
2022/05/24 01:50:36;;;;;;;10.40;7.00;;;;;;;13.86;100.00;99323.08;105983;1274;72719;-82
2022/05/24 01:53:09;;;;;;;9.10;5.60;;;;;;;13.85;100.00;99324.70;106347;1274;74424;-82
2022/05/24 01:55:42;;;;;;;9.30;7.30;;;;;;;13.83;100.00;99338.86;106307;1274;63500;-85
2022/05/24 01:58:19;;;;;;;7.30;5.20;;;;;;;13.82;100.00;99347.68;106325;1274;61740;-82
2022/05/24 02:00:55;;;;;;;8.80;6.50;;;;;;;13.80;100.00;99350.45;106309;1273;73814;-83
2022/05/24 02:03:26;;;;;;;6.00;5.00;;;;;;;13.79;100.00;99344.35;106156;1273;70093;-83
2022/05/24 02:06:25;;;;;;;8.00;5.00;;;;;;;13.77;100.00;99350.70;106009;1275;73047;-82
2022/05/24 02:08:59;;;;;;;7.20;4.30;;;;;;;13.77;100.00;99341.86;106059;1274;63868;-83
2022/05/24 02:11:37;;;;;;;7.90;4.50;;;;;;;13.76;100.00;99346.39;106097;1274;61691;-82
2022/05/24 02:14:21;;;;;;;6.20;3.80;;;;;;;13.73;100.00;99340.81;106464;1274;75727;-83
2022/05/24 02:16:55;;;;;;;5.40;3.30;;;;;;;13.69;100.00;99345.91;106782;1274;71526;-83
2022/05/24 02:19:24;;;;;;;5.00;3.70;;;;;;;13.66;100.00;99347.38;106284;1275;73904;-82
2022/05/24 02:21:57;;;;;;;5.90;4.10;;;;;;;13.65;100.00;99348.05;106232;1275;62772;-84
2022/05/24 02:24:25;;;;;;;4.90;3.70;;;;;;;13.63;100.00;99344.61;106591;1273;61840;-82
2022/05/24 02:26:55;;;;;;;4.80;3.30;;;;;;;13.62;100.00;99347.12;106527;1273;75168;-83
2022/05/24 02:29:23;;;;;;;4.20;2.80;;;;;;;13.61;100.00;99351.92;106441;1274;72622;-83
2022/05/24 02:31:52;;;;;;;4.50;3.20;;;;;;;13.60;100.00;99358.95;106417;1274;74044;-82
2022/05/24 02:34:19;;;;;;;3.90;2.90;;;;;;;13.59;100.00;99360.31;106613;1274;62249;-83
2022/05/24 02:36:46;;;;;;;5.40;3.60;;;;;;;13.58;100.00;99355.00;107108;1274;60361;-84
2022/05/24 02:39:16;;;;;;;3.90;2.30;;;;;;;13.57;100.00;99353.06;106430;1273;76147;-84
2022/05/24 02:41:43;;;;;;;4.50;3.10;;;;;;;13.56;99.87;99354.76;106300;1274;73659;-82
2022/05/24 02:44:14;;;;;;;3.60;2.40;;;;;;;13.56;99.54;99351.45;108098;1273;74542;-84
2022/05/24 02:46:46;;;;;;;5.60;2.80;;;;;;;13.55;98.85;99359.41;107684;1276;62711;-83
2022/05/24 02:49:16;;;;;;;4.10;1.90;;;;;;;13.54;96.63;99365.83;107368;1274;61753;-82
2022/05/24 02:51:44;;;;;;;4.10;2.00;;;;;;;13.52;95.91;99363.70;106510;1273;74939;-84
2022/05/24 02:54:13;;;;;;;3.90;1.30;;;;;;;13.51;94.51;99373.09;106452;1273;71828;-83
2022/05/24 02:56:47;;;;;;;2.30;1.50;;;;;;;13.50;93.23;99372.23;106584;1263;72970;-83
2022/05/24 02:59:21;;;;;;;2.80;1.50;;;;;;;13.47;92.22;99377.27;106364;1271;62301;-83
2022/05/24 03:01:56;;;;;;;3.70;1.10;;;;;;;13.44;90.56;99381.27;106181;1271;61874;-83
2022/05/24 03:04:25;;;;;;;2.80;1.10;;;;;;;13.40;89.87;99379.00;106246;1271;74901;-83
2022/05/24 03:09:39;;;;;;;;;;;;;;;13.28;90.84;99390.89;106674;1271;72838;-83
2022/05/24 03:14:57;;;;;;;2.20;1.10;;;;;;;13.13;91.88;99394.30;106358;1271;61332;-83
2022/05/24 03:17:24;;;;;;;1.80;1.20;;;;;;;13.06;92.25;99391.73;106587;1271;75409;-83
2022/05/24 03:19:52;;;;;;;4.60;2.10;;;;;;;13.01;92.42;99391.89;106590;1271;72079;-83
2022/05/24 03:22:19;;;;;;;2.60;1.40;;;;;;;12.97;92.93;99391.09;106794;1271;74053;-83
2022/05/24 03:24:46;;;;;;;2.00;1.50;;;;;;;12.93;92.97;99396.96;106601;1274;63236;-84
2022/05/24 03:27:14;;;;;;;3.50;1.80;;;;;;;12.91;93.41;99398.80;106784;1271;61071;-83
2022/05/24 03:29:46;;;;;;;3.70;1.90;;;;;;;12.90;93.71;99396.38;106342;1271;73772;-82
2022/05/24 03:32:20;;;;;;;5.10;2.50;;;;;;;12.88;94.12;99400.33;106166;1274;69914;-83
2022/05/24 03:34:50;;;;;;;4.40;2.30;;;;;;;12.87;94.37;99405.81;106208;1273;72694;-84
2022/05/24 03:37:23;;;;;;;5.80;2.50;;;;;;;12.88;94.58;99408.80;106054;1274;61382;-83
2022/05/24 03:39:56;;;;;;;4.30;2.20;;;;;;;12.88;94.55;99408.71;106308;1273;60559;-83
2022/05/24 03:42:39;;;;;;;4.10;2.70;;;;;;;12.89;94.43;99406.54;106187;1271;75122;-83
2022/05/24 03:45:13;;;;;;;4.80;2.20;;;;;;;12.92;94.33;99412.20;106329;1271;71089;-82
2022/05/24 03:47:51;;;;;;;4.70;2.40;;;;;;;12.94;94.28;99420.94;106588;1273;73126;-82
2022/05/24 03:50:19;;;;;;;3.90;2.30;;;;;;;12.97;94.26;99424.64;106521;1274;62072;-83
2022/05/24 03:52:48;;;;;;;3.80;2.30;;;;;;;12.99;94.17;99422.98;106562;1273;62511;-82
2022/05/24 03:55:18;;;;;;;5.50;2.80;;;;;;;13.00;93.88;99429.34;106619;1274;76392;-81
2022/05/24 03:58:00;;;;;;;6.40;2.70;;;;;;;13.01;93.83;99435.89;106376;1276;72982;-83
2022/05/24 04:00:31;;;;;;;3.90;2.50;;;;;;;13.03;93.91;99439.02;106348;1274;70646;-83
2022/05/24 04:03:05;;;;;;;4.10;2.60;;;;;;;13.03;93.66;99441.77;106561;1274;63316;-82
2022/05/24 04:05:36;;;;;;;4.30;2.60;;;;;;;13.04;93.70;99449.16;106247;1274;61293;-81
2022/05/24 04:08:05;;;;;;;6.80;2.40;;;;;;;13.05;93.32;99465.83;106230;1274;76952;-84
2022/05/24 04:10:41;;;;;;;4.30;2.40;;;;;;;13.08;93.19;99466.53;106092;1274;74510;-83
2022/05/24 04:13:13;;;;;;;4.30;2.50;;;;;;;13.09;93.31;99461.98;106066;1274;71803;-84
2022/05/24 04:15:45;;;;;;;4.20;2.70;;;;;;;13.11;93.22;99463.59;105927;1274;64844;-84
2022/05/24 04:18:19;;;;;;;3.40;2.30;;;;;;;13.14;92.94;99465.60;106218;1274;61245;-83
2022/05/24 04:23:25;;;;;;;5.50;2.60;;;;;;;13.22;92.60;99459.71;106281;1262;68981;-83
2022/05/24 04:25:53;;;;;;;4.40;2.70;;;;;;;13.26;92.33;99458.34;107781;1272;73002;-86
2022/05/24 04:28:22;;;;;;;4.00;2.70;;;;;;;13.31;92.50;99455.60;107333;1273;61253;-86
2022/05/24 04:30:51;;;;;;;2.70;1.60;;;;;;;13.36;92.38;99456.41;106932;1274;59797;-87
2022/05/24 04:33:18;;;;;;;7.10;3.20;;;;;;;13.42;92.12;99451.56;106652;1273;73792;-87
2022/05/24 04:35:47;;;;;;;5.00;3.10;;;;;;;13.50;92.31;99458.70;106831;1273;71423;-86
2022/05/24 04:38:16;;;;;;;5.00;3.50;;;;;;;13.55;92.17;99463.42;106581;1273;71647;-86
2022/05/24 04:43:40;;;;;;;4.80;2.70;;;;;;;13.65;91.92;99462.20;106642;1273;61843;-86
2022/05/24 04:46:14;;;;;;;6.10;3.90;;;;;;;13.68;91.46;99462.94;106341;1272;74888;-86
2022/05/24 04:48:52;;;;;;;5.70;3.90;;;;;;;13.71;91.54;99458.64;106290;1273;71871;-88
2022/05/24 04:51:32;;;;;;;5.60;3.60;;;;;;;13.74;91.50;99456.73;106445;1273;74004;-86
2022/05/24 04:53:59;;;;;;;7.40;4.90;;;;;;;13.76;91.51;99461.02;106597;1273;61201;-86
2022/05/24 04:56:26;;;;;;;5.90;4.20;;;;;;;13.80;91.38;99455.89;106510;1274;61402;-87
2022/05/24 04:58:58;;;;;;;6.90;3.90;;;;;;;13.83;91.52;99455.64;106783;1272;74917;-86
2022/05/24 05:01:25;;;;;;;5.20;3.70;;;;;;;13.87;91.41;99457.45;106961;1274;72005;-85
2022/05/24 05:03:55;;;;;;;5.80;4.00;;;;;;;13.93;91.45;99453.08;107001;1273;72388;-86
2022/05/24 05:06:25;;;;;;;5.70;3.70;;;;;;;13.99;91.21;99458.40;106978;1273;61967;-86
2022/05/24 05:08:52;;;;;;;6.60;3.80;;;;;;;14.03;90.96;99467.77;107040;1273;61295;-86
2022/05/24 05:11:22;;;;;;;10.30;4.50;;;;;;;14.07;90.91;99467.26;107758;1272;75003;-86
2022/05/24 05:13:48;;;;;;;5.70;4.10;;;;;;;14.17;90.89;99462.00;107026;1273;71418;-87
2022/05/24 05:16:21;;;;;;;7.70;4.80;;;;;;;14.22;89.91;99455.73;106741;1273;72289;-86
2022/05/24 05:18:55;;;;;;;6.60;4.50;;;;;;;14.23;89.92;99443.05;106319;1273;62208;-85
2022/05/24 05:21:33;;;;;;;8.10;5.20;;;;;;;14.25;90.26;99449.31;106170;1273;61183;-86
2022/05/24 05:24:11;;;;;;;8.00;5.10;;;;;;;14.27;89.98;99452.02;106315;1271;76126;-86
2022/05/24 05:26:53;;;;;;;6.70;4.80;;;;;;;14.26;89.76;99454.52;106190;1271;71415;-86
2022/05/24 05:32:05;;;;;;;;;;;;;;;14.26;90.25;99472.16;106724;1272;61694;-86
2022/05/24 05:34:32;;;;;;;9.20;5.10;;;;;;;14.27;90.46;99480.06;106426;1271;61548;-86
2022/05/24 05:36:59;;;;;;;6.50;4.90;;;;;;;14.31;90.72;99483.78;106314;1271;73629;-84
2022/05/24 05:39:26;;;;;;;10.10;6.90;;;;;;;14.31;90.42;99485.13;106207;1274;71343;-86
2022/05/24 05:41:53;;;;;;;11.30;5.50;;;;;;;14.31;90.26;99489.61;106283;1271;74253;-85
2022/05/24 05:44:23;;;;;;;7.00;4.60;;;;;;;14.34;90.25;99495.11;106394;1273;62139;-87
2022/05/24 05:46:55;;;;;;;7.40;5.20;;;;;;;14.37;90.24;99493.86;106270;1274;59634;-86
2022/05/24 05:49:35;;;;;;;7.40;5.00;;;;;;;14.43;89.92;99492.05;105791;1274;75938;-86
2022/05/24 05:52:11;;;;;;;12.10;5.70;;;;;;;14.51;90.12;99491.59;106030;1273;71661;-86
2022/05/24 05:54:45;;;;;;;8.50;4.90;;;;;;;14.57;89.65;99495.87;106172;1274;73082;-85
2022/05/24 05:57:12;;;;;;;8.70;5.50;;;;;;;14.66;89.52;99499.83;106020;1274;62285;-86
2022/05/24 05:59:39;;;;;;;6.70;5.50;;;;;;;14.78;89.32;99505.42;106197;1273;61370;-85
2022/05/24 06:02:07;;;;;;;6.90;5.30;;;;;;;14.88;88.46;99509.84;106379;1274;76668;-86
2022/05/24 06:04:38;;;;;;;7.00;5.50;;;;;;;14.97;87.40;99509.98;106500;1273;71157;-86
2022/05/24 06:07:06;;;;;;;6.80;5.20;;;;;;;15.11;87.67;99515.20;106320;1271;74134;-85
2022/05/24 06:09:35;;;;;;;7.20;5.10;;;;;;;15.28;87.83;99514.99;106064;1273;63473;-85
2022/05/24 06:12:13;;;;;;;7.80;5.10;;;;;;;15.48;87.72;99513.64;106107;1274;61215;-86
2022/05/24 06:14:39;;;;;;;7.00;5.20;;;;;;;15.63;86.90;99514.73;105981;1274;76106;-86
2022/05/24 06:17:26;;;;;;;7.10;5.00;;;;;;;15.72;85.93;99521.02;106058;1264;71255;-84
2022/05/24 06:20:24;;;;;;;6.40;4.70;;;;;;;15.78;85.89;99526.02;105764;1274;75165;-85
2022/05/24 06:23:06;;;;;;;12.40;8.10;;;;;;;15.82;85.75;99530.86;106043;1274;63445;-85
2022/05/24 06:25:33;;;;;;;6.80;5.50;;;;;;;15.86;85.75;99525.30;105868;1274;59993;-85
2022/05/24 06:28:00;;;;;;;9.10;7.20;;;;;;;15.89;85.33;99527.52;105919;1276;74929;-86
2022/05/24 06:30:28;;;;;;;15.60;8.40;;;;;;;15.88;84.30;99531.30;105843;1276;61288;-85
2022/05/24 06:32:55;;;;;;;8.10;7.00;;;;;;;15.84;84.11;99534.92;105872;1274;73392;-86
2022/05/24 06:35:22;;;;;;;11.70;8.50;;;;;;;15.78;84.19;99533.41;105935;1275;63643;-85
2022/05/24 06:37:49;;;;;;;16.80;9.40;;;;;;;15.72;84.41;99537.20;105724;1274;62090;-85
2022/05/24 06:40:20;;;;;;;11.40;8.70;;;;;;;15.65;84.27;99543.02;105787;1276;74717;-85
2022/05/24 06:42:54;;;;;;;12.00;9.50;;;;;;;15.61;84.59;99545.16;105912;1274;71209;-86
2022/05/24 06:45:21;;;;;;;12.90;9.30;;;;;;;15.59;84.93;99540.59;105928;1274;72972;-85
2022/05/24 06:47:50;;;;;;;13.80;10.20;;;;;;;15.62;85.27;99545.14;105863;1276;61632;-87
2022/05/24 06:50:17;;;;;;;21.70;13.00;;;;;;;15.70;85.42;99543.27;106141;1274;61352;-85
2022/05/24 06:52:45;;;;;;;11.40;8.80;;;;;;;15.76;85.15;99550.60;106369;1274;77925;-88
2022/05/24 06:55:17;;;;;;;11.90;9.10;;;;;;;15.80;84.68;99550.08;106122;1276;69478;-87
2022/05/24 06:57:44;;;;;;;10.40;8.20;;;;;;;15.86;84.61;99553.10;105765;1274;72819;-86
2022/05/24 07:03:05;;;;;;;12.60;9.40;;;;;;;15.90;84.51;99557.19;106343;1277;61191;-86
2022/05/24 07:05:35;;;;;;;12.50;8.10;;;;;;;15.89;84.60;99556.83;105701;1275;74925;-85
2022/05/24 07:08:05;;;;;;;14.30;9.30;;;;;;;15.82;84.26;99558.63;105649;1276;72026;-84
2022/05/24 07:10:34;;;;;;;10.30;8.10;;;;;;;15.73;84.34;99567.36;105728;1276;72914;-86
2022/05/24 07:13:18;;;;;;;13.80;8.50;;;;;;;15.65;84.36;99574.94;105874;1276;62023;-86
2022/05/24 07:15:53;;;;;;;11.80;8.90;;;;;;;15.60;84.82;99572.11;105631;1277;60454;-85
2022/05/24 07:18:26;;;;;;;10.50;7.80;;;;;;;15.61;85.41;99581.15;105655;1276;75127;-85
2022/05/24 07:20:57;;;;;;;9.60;7.70;;;;;;;15.65;85.52;99579.71;105766;1276;69769;-87
2022/05/24 07:23:38;;;;;;;8.20;6.10;;;;;;;15.68;83.56;99583.17;105364;1276;72765;-84
2022/05/24 07:26:47;;;;;;;7.50;5.40;;;;;;;15.79;83.11;99581.84;106563;1268;162148;-84
2022/05/24 07:29:25;;;;;;;8.60;6.30;;;;;;;15.97;82.95;99581.81;106875;1274;61861;-83
2022/05/24 07:31:56;;;;;;;9.80;7.00;;;;;;;16.11;82.68;99586.58;106695;1274;75584;-83
2022/05/24 07:34:25;;;;;;;9.30;7.40;;;;;;;16.23;82.56;99585.73;106699;1274;71187;-83
2022/05/24 07:37:00;;;;;;;9.90;6.20;;;;;;;16.34;81.94;99582.88;106802;1274;73031;-83
2022/05/24 07:39:39;;;;;;;9.60;6.90;;;;;;;16.43;81.65;99580.73;106630;1274;61150;-84
2022/05/24 07:47:51;;;;;;;8.70;6.10;;;;;;;16.64;80.61;99581.73;106769;1276;71252;-87
2022/05/24 07:50:18;;;;;;;7.20;5.60;;;;;;;16.57;79.33;99594.95;106730;1272;72239;-87
2022/05/24 07:52:47;;;;;;;7.80;6.20;;;;;;;16.51;79.81;99587.64;106838;1274;62451;-87
2022/05/24 07:55:25;;;;;;;9.50;6.50;;;;;;;16.50;80.51;99589.11;106797;1276;61172;-84
2022/05/24 07:57:52;;;;;;;7.60;5.40;;;;;;;16.50;80.78;99593.02;107044;1274;76006;-83
2022/05/24 08:00:19;;;;;;;8.40;6.60;;;;;;;16.55;80.87;99595.29;107681;1274;73689;-83
2022/05/24 08:02:50;;;;;;;8.70;7.40;;;;;;;16.58;81.06;99595.52;108096;1273;73163;-84
2022/05/24 08:05:35;;;;;;;6.10;4.40;;;;;;;16.58;80.74;99600.11;108263;1274;62389;-85
2022/05/24 08:08:06;;;;;;;9.70;6.40;;;;;;;16.59;80.96;99596.86;107301;1274;61654;-86
2022/05/24 08:10:41;;;;;;;8.00;6.40;;;;;;;16.58;81.38;99597.66;107776;1274;75413;-87
2022/05/24 08:13:40;;;;;;;;;;;;;;;;;;;;;
2022/05/24 08:16:15;;;;;;;5.50;4.20;;;;;;;16.49;81.24;99600.33;106431;1274;72930;-87
2022/05/24 08:19:05;;;;;;;;;;;;;;;;;;;;;
2022/05/24 08:24:13;;;;;;;3.30;2.40;;;;;;;14.19;89.77;99672.80;106101;1273;74644;-81
2022/05/24 08:26:42;;;;;;;6.40;3.80;;;;;;;13.50;92.13;99677.66;105977;1274;71661;-82
2022/05/24 08:29:13;;;;;;;5.80;3.40;;;;;;;13.05;95.89;99674.02;105602;1275;72400;-82
2022/05/24 08:31:47;;;;;;;4.90;4.20;;;;;;;12.76;98.94;99679.98;105787;1275;62094;-81
2022/05/24 08:34:21;;;;;;;8.40;5.90;;;;;;;12.59;100.00;99675.88;105736;1275;61407;-81
2022/05/24 08:37:00;;;;;;;8.80;4.60;;;;;;;12.55;100.00;99679.50;105789;1275;75777;-81
2022/05/24 08:39:28;;;;;;;8.50;5.70;;;;;;;12.59;100.00;99676.08;105728;1276;72642;-81
2022/05/24 08:42:45;;;;;;;7.30;4.50;;;;;;;12.67;100.00;99681.52;105737;1274;73778;-81
2022/05/24 08:48:28;;;;;;;9.70;7.00;;;;;;;12.93;100.00;99666.73;106187;1274;61729;-81
2022/05/24 08:51:01;;;;;;;9.40;7.50;;;;;;;13.04;100.00;99664.35;106009;1275;75274;-82
2022/05/24 08:53:33;;;;;;;9.40;7.40;;;;;;;13.17;100.00;99673.39;105894;1275;71380;-80
2022/05/24 08:56:04;;;;;;;9.10;6.20;;;;;;;13.25;100.00;99686.98;105636;1277;72987;-83
2022/05/24 08:58:44;;;;;;;7.60;6.50;;;;;;;13.29;100.00;99700.41;105670;1276;62078;-81
2022/05/24 09:01:24;;;;;;;7.40;5.20;;;;;;;13.30;100.00;99712.30;105787;1276;61467;-82
2022/05/24 09:03:54;;;;;;;3.60;2.70;;;;;;;13.25;100.00;99724.15;105968;1276;76275;-82
2022/05/24 09:06:46;;;;;;;4.90;3.60;;;;;;;13.17;100.00;99714.09;105783;1276;71182;-82
2022/05/24 09:09:34;;;;;;;4.60;3.40;;;;;;;13.16;100.00;99716.71;105787;1275;73045;-82
2022/05/24 09:12:49;;;;;;;5.60;4.00;;;;;;;13.17;100.00;99728.09;105771;1265;166134;-85
2022/05/24 09:15:32;;;;;;;4.80;4.00;;;;;;;13.19;100.00;99734.05;106562;1274;62072;-81
2022/05/24 09:18:29;;;;;;;;;;;;;;;;;;;;;
2022/05/24 09:21:00;;;;;;;4.10;2.20;;;;;;;13.10;100.00;99724.05;106313;1274;73115;-84
2022/05/24 09:23:49;;;;;;;2.90;2.40;;;;;;;12.98;100.00;99731.70;106414;1274;71921;-83
2022/05/24 09:26:22;;;;;;;3.70;2.60;;;;;;;12.92;100.00;99729.85;106396;1277;61292;-84
2022/05/24 09:29:05;;;;;;;;;;;;;;;;;;;;;
2022/05/24 09:31:43;;;;;;;3.40;2.40;;;;;;;12.94;100.00;99704.65;106039;1276;573896;-85
2022/05/24 09:35:06;;;;;;;3.50;2.50;;;;;;;13.03;100.00;99704.63;106305;1277;71063;-86
2022/05/24 09:37:48;;;;;;;4.40;2.50;;;;;;;13.13;100.00;99723.04;106345;1276;74142;-83
2022/05/24 09:40:50;;;;;;;4.80;2.50;;;;;;;13.22;99.85;99730.23;106636;1274;63058;-83
2022/05/24 09:43:36;;;;;;;4.60;3.00;;;;;;;13.42;98.82;99734.25;106505;1274;61271;-83
2022/05/24 09:46:48;;;;;;;5.20;2.60;;;;;;;13.61;97.32;99741.80;106444;1274;76690;-84
2022/05/24 09:50:00;;;;;;;;;;;;;;;;;;;;;
2022/05/24 09:52:46;;;;;;;3.10;2.20;;;;;;;13.86;95.31;99760.86;106567;1274;71888;-85
2022/05/24 09:55:21;;;;;;;;;;;;;;;13.85;94.42;99768.45;106545;1274;61355;-85
2022/05/24 09:58:08;;;;;;;;;;;;;;;13.76;92.95;99776.48;106337;1275;62259;-85
2022/05/24 10:01:19;;;;;;;2.90;2.40;;;;;;;13.68;93.68;99765.77;106447;1273;74039;-87
2022/05/24 10:04:45;;;;;;;;;;;;;;;;;;;;;
2022/05/24 10:08:00;;;;;;;4.00;2.60;;;;;;;13.61;95.00;99764.48;106458;1277;71443;-84
2022/05/24 10:10:59;;;;;;;4.40;3.00;;;;;;;13.64;96.45;99770.55;106351;1276;62518;-85
2022/05/24 10:13:47;;;;;;;4.70;4.10;;;;;;;13.68;93.50;99777.54;106315;1276;61362;-86
2022/05/24 10:16:37;;;;;;;4.60;3.20;;;;;;;13.73;92.37;99777.13;106443;1276;75288;-86
2022/05/24 10:19:44;;;;;;;4.90;4.20;;;;;;;13.85;92.09;99781.20;106540;1276;71717;-87
2022/05/24 10:22:55;;;;;;;7.30;4.40;;;;;;;13.96;91.32;99792.67;107095;1274;73211;-85
2022/05/24 10:25:56;;;;;;;5.60;4.40;;;;;;;14.16;91.65;99782.55;106383;1274;61913;-87
2022/05/24 10:28:36;;;;;;;5.90;4.00;;;;;;;14.35;91.32;99787.33;106120;1276;63008;-86
2022/05/24 10:31:28;;;;;;;5.90;3.70;;;;;;;14.42;88.74;99796.73;106336;1276;75353;-89
2022/05/24 10:40:28;;;;;;;5.20;3.30;;;;;;;14.69;86.46;99802.45;106448;1274;64020;-84
2022/05/24 10:43:11;;;;;;;4.90;2.90;;;;;;;14.91;84.51;99807.20;106232;1276;61389;-83
2022/05/24 10:45:51;;;;;;;7.40;4.10;;;;;;;15.20;83.12;99812.48;106779;1275;73751;-85
2022/05/24 10:48:43;;;;;;;6.60;4.30;;;;;;;15.53;83.55;99817.59;106364;1274;73531;-84
2022/05/24 10:51:23;;;;;;;5.40;3.70;;;;;;;15.81;80.21;99820.88;106340;1276;72595;-86
2022/05/24 10:53:54;;;;;;;5.30;3.80;;;;;;;15.98;78.93;99824.01;106385;1276;62241;-87
2022/05/24 10:56:31;;;;;;;5.00;3.80;;;;;;;16.11;78.18;99823.34;106389;1274;62113;-86
2022/05/24 10:59:06;;;;;;;4.20;3.70;;;;;;;16.23;78.81;99827.52;106203;1276;75761;-84
2022/05/24 11:01:43;;;;;;;6.20;4.00;;;;;;;16.48;79.31;99837.54;106373;1274;72431;-88
2022/05/24 11:04:39;;;;;;;6.40;4.30;;;;;;;16.78;77.12;99840.75;106383;1274;72925;-85
2022/05/24 11:07:13;;;;;;;5.00;3.90;;;;;;;16.94;72.68;99851.05;106257;1276;62325;-86
2022/05/24 11:10:09;;;;;;;4.30;3.80;;;;;;;16.69;70.65;99850.84;106346;1276;61560;-85
2022/05/24 11:12:42;;;;;;;5.60;4.10;;;;;;;16.41;71.93;99856.40;106250;1276;74705;-84
2022/05/24 11:15:17;;;;;;;7.90;4.50;;;;;;;16.06;72.87;99859.44;106116;1276;70926;-85
2022/05/24 11:17:48;;;;;;;5.80;3.80;;;;;;;15.84;74.92;99852.67;106329;1276;72920;-88
2022/05/24 11:20:22;;;;;;;5.50;4.10;;;;;;;15.64;75.48;99861.30;106252;1276;62798;-85
2022/05/24 11:23:15;;;;;;;5.80;3.60;;;;;;;15.57;75.69;99863.03;106356;1276;61204;-85
2022/05/24 11:25:50;;;;;;;4.20;3.50;;;;;;;15.64;76.61;99864.30;106219;1276;78071;-87
2022/05/24 11:28:32;;;;;;;4.80;3.80;;;;;;;15.75;76.01;99869.93;106253;1276;71703;-84
2022/05/24 11:31:23;;;;;;;4.80;3.30;;;;;;;15.97;75.61;99875.55;106289;1274;74163;-84
2022/05/24 11:34:03;;;;;;;3.70;2.60;;;;;;;16.50;73.21;99875.02;106305;1274;61958;-86
2022/05/24 11:36:41;;;;;;;3.30;2.20;;;;;;;16.90;68.76;99869.95;106260;1276;61283;-84
2022/05/24 11:39:11;;;;;;;3.50;2.00;;;;;;;16.92;66.39;99872.82;106145;1276;76395;-86
2022/05/24 11:41:39;;;;;;;2.30;1.70;;;;;;;16.81;67.36;99872.70;106305;1274;71753;-84
2022/05/24 11:44:34;;;;;;;3.50;2.30;;;;;;;16.74;69.44;99873.88;106175;1276;73314;-86
2022/05/24 11:47:01;;;;;;;;;;;;;;;16.63;69.44;99881.82;106358;1275;61359;-85
2022/05/24 11:49:27;;;;;;;2.30;1.40;;;;;;;16.57;68.26;99886.14;106485;1274;60734;-84
2022/05/24 11:51:56;;;;;;;4.40;2.00;;;;;;;16.67;66.21;99892.09;106287;1276;61069;-86
2022/05/24 11:54:26;;;;;;;3.70;1.70;;;;;;;16.69;66.30;99883.23;106167;1275;71409;-87
2022/05/24 11:57:27;;;;;;;5.40;1.60;;;;;;;16.63;66.65;99892.70;106184;1275;73009;-84
2022/05/24 12:00:02;;;;;;;3.40;1.60;;;;;;;16.46;65.79;99901.70;106144;1276;63008;-84
2022/05/24 12:09:23;;;;;;;1.90;1.00;;;;;;;16.38;66.58;99901.67;106245;1276;72684;-88
2022/05/24 12:12:24;;;;;;;3.20;0.90;;;;;;;16.48;66.06;99900.47;106245;1277;72964;-87
2022/05/24 12:15:31;;;;;;;1.80;0.90;;;;;;;16.58;64.76;99898.48;106475;1277;62084;-85
2022/05/24 12:18:10;;;;;;;3.40;0.70;;;;;;;16.94;63.30;99897.44;106383;1275;61844;-87
2022/05/24 12:20:37;;;;;;;1.70;0.90;;;;;;;17.71;61.79;99885.27;106306;1276;76021;-84
2022/05/24 12:23:07;;;;;;;3.80;1.00;;;;;;;18.49;60.27;99895.20;106416;1277;61164;-83
2022/05/24 12:26:02;;;;;;;2.00;0.60;;;;;;;19.18;56.33;99898.77;106115;1277;71921;-86
2022/05/24 12:28:46;;;;;;;1.10;0.60;;;;;;;19.76;53.47;99898.95;106178;1277;61671;-83
2022/05/24 12:31:13;;;;;;;1.50;0.60;;;;;;;20.16;49.39;99903.16;106017;1276;62111;-83
2022/05/24 12:33:52;;;;;;;2.90;0.80;;;;;;;20.47;48.60;99898.95;106136;1276;74670;-83
2022/05/24 12:36:28;;;;;;;1.30;0.60;;;;;;;20.77;48.40;99900.23;106165;1276;72540;-82
2022/05/24 12:39:17;;;;;;;2.20;0.50;;;;;;;21.04;46.26;99896.58;106029;1277;77057;-84
2022/05/24 12:41:46;;;;;;;2.40;0.80;;;;;;;21.24;46.06;99903.24;106121;1276;61302;-83
2022/05/24 12:44:26;;;;;;;1.90;0.70;;;;;;;21.26;44.66;99910.68;106107;1277;61253;-84
2022/05/24 12:47:11;;;;;;;1.70;0.60;;;;;;;21.55;44.09;99893.89;106181;1276;76045;-84
2022/05/24 12:49:54;;;;;;;1.70;0.80;;;;;;;21.82;43.86;99903.32;106042;1277;70057;-84
2022/05/24 12:52:29;;;;;;;3.00;0.80;;;;;;;22.17;43.60;99906.05;106141;1274;73570;-85
2022/05/24 12:54:58;;;;;;;1.70;0.80;;;;;;;23.11;41.22;99901.45;105936;1275;61873;-83
2022/05/24 12:57:40;;;;;;;1.60;1.00;;;;;;;24.11;38.76;99900.77;106370;1276;61286;-84
2022/05/24 13:00:12;;;;;;;1.80;0.60;;;;;;;25.08;36.98;99901.24;107132;1276;75103;-84
2022/05/24 13:02:46;;;;;;;1.60;0.70;;;;;;;25.86;35.46;99894.08;107967;1275;71189;-84
2022/05/24 13:05:18;;;;;;;0.90;0.40;;;;;;;26.05;34.95;99901.05;108156;1277;72904;-83
2022/05/24 13:07:58;;;;;;;3.30;0.70;;;;;;;26.81;33.70;99903.94;108157;1274;61249;-83
2022/05/24 13:10:30;;;;;;;4.10;1.30;;;;;;;27.22;32.21;99909.86;108147;1274;61272;-86